Time;durP1;ratioP1;P1;durP2;ratioP2;P2;SDS_P1;SDS_P2;PMS_P1;PMS_P2;Temp;Humidity;BMP_temperature;BMP_pressure;BME280_temperature;BME280_humidity;BME280_pressure;Samples;Min_cycle;Max_cycle;Signal;HPM_P1;HPM_P2
2021/12/07 00:01:40;;;;;;;7.93;4.47;;;3.10;99.90;;;;;;5037104;28;20405;-73
2021/12/07 00:04:06;;;;;;;8.67;4.83;;;3.10;99.90;;;;;;5018452;28;20833;-73
2021/12/07 00:06:33;;;;;;;6.60;4.33;;;3.20;99.90;;;;;;5036268;28;20437;-73
2021/12/07 00:08:59;;;;;;;5.53;3.47;;;3.20;99.90;;;;;;5035977;28;20464;-75
2021/12/07 00:11:28;;;;;;;5.57;3.90;;;3.30;99.90;;;;;;5036515;28;20405;-73
2021/12/07 00:13:57;;;;;;;5.80;3.80;;;3.30;99.90;;;;;;5035556;28;20945;-74
2021/12/07 00:16:24;;;;;;;6.30;4.50;;;3.40;99.90;;;;;;5017549;28;20413;-74
2021/12/07 00:18:50;;;;;;;4.20;2.90;;;3.40;99.90;;;;;;5018439;28;20448;-73
2021/12/07 00:21:18;;;;;;;6.10;3.43;;;3.50;99.90;;;;;;5037218;28;20416;-73
2021/12/07 00:23:46;;;;;;;5.83;2.63;;;3.50;99.90;;;;;;5019040;28;20409;-72
2021/12/07 00:26:13;;;;;;;4.70;2.50;;;3.50;99.90;;;;;;5036259;28;20912;-73
2021/12/07 00:28:41;;;;;;;4.40;2.60;;;3.50;99.90;;;;;;5018065;28;20453;-73
2021/12/07 00:31:14;;;;;;;5.00;1.70;;;3.50;99.90;;;;;;5018652;28;20776;-74
2021/12/07 00:33:51;;;;;;;3.40;2.10;;;3.50;99.90;;;;;;5019096;28;20496;-74
2021/12/07 00:36:18;;;;;;;4.33;2.20;;;3.40;99.80;;;;;;5017976;28;20448;-74
2021/12/07 00:38:44;;;;;;;3.60;2.20;;;3.40;99.90;;;;;;5019068;28;20456;-76
2021/12/07 00:41:11;;;;;;;3.23;2.30;;;3.40;99.90;;;;;;5036884;28;20181;-72
2021/12/07 00:43:37;;;;;;;4.60;2.07;;;3.40;99.80;;;;;;5036311;28;20421;-73
2021/12/07 00:46:03;;;;;;;2.13;1.30;;;3.40;99.80;;;;;;5036699;28;20181;-75
2021/12/07 00:48:30;;;;;;;2.70;1.80;;;3.40;99.90;;;;;;5018100;28;20510;-74
2021/12/07 00:50:57;;;;;;;3.60;1.90;;;3.30;99.80;;;;;;5002084;28;20417;-71
2021/12/07 00:53:25;;;;;;;2.20;1.27;;;3.30;99.90;;;;;;5035039;28;20420;-73
2021/12/07 00:55:54;;;;;;;4.10;1.93;;;3.30;99.80;;;;;;5003345;28;20401;-73
2021/12/07 00:58:23;;;;;;;2.50;1.90;;;3.30;99.90;;;;;;5018011;28;20498;-73
2021/12/07 01:00:57;;;;;;;6.50;1.67;;;3.30;99.90;;;;;;5018734;28;20672;-73
2021/12/07 01:03:27;;;;;;;3.07;1.90;;;3.30;99.90;;;;;;5035004;28;20427;-72
2021/12/07 01:06:04;;;;;;;4.87;2.70;;;3.30;99.90;;;;;;5017980;28;20595;-73
2021/12/07 01:09:00;;;;;;;3.03;1.90;;;3.30;99.90;;;;;;5035677;28;20616;-72
2021/12/07 01:25:06;;;;;;;3.77;3.03;;;3.50;99.90;;;;;;5035981;28;20858;-72
2021/12/07 01:27:32;;;;;;;2.63;2.10;;;3.50;99.90;;;;;;5017860;28;20429;-72
2021/12/07 01:30:14;;;;;;;4.70;3.27;;;3.50;99.90;;;;;;5023635;28;20841;-73
2021/12/07 01:35:36;;;;;;;5.73;4.27;;;3.60;99.90;;;;;;5017826;28;20418;-74
2021/12/07 01:59:37;;;;;;;19.53;7.80;;;4.20;99.90;;;;;;5010045;28;20460;-77
2021/12/07 02:02:07;;;;;;;15.90;8.60;;;4.30;99.90;;;;;;5009244;28;20414;-76
2021/12/07 02:04:33;;;;;;;24.23;8.97;;;4.30;99.90;;;;;;4993565;28;20429;-77
2021/12/07 02:06:59;;;;;;;12.87;8.40;;;4.40;99.90;;;;;;5009260;28;20780;-77
2021/12/07 02:09:36;;;;;;;13.30;7.70;;;4.40;99.90;;;;;;5009117;28;20461;-77
2021/12/07 02:12:05;;;;;;;12.50;6.70;;;4.40;99.90;;;;;;4992478;28;20414;-78
2021/12/07 02:14:31;;;;;;;14.13;5.93;;;4.50;99.90;;;;;;5009282;28;20499;-77
2021/12/07 02:17:03;;;;;;;12.30;7.27;;;4.50;99.90;;;;;;5010340;28;20434;-78
2021/12/07 02:19:29;;;;;;;10.93;6.27;;;4.50;99.90;;;;;;5009398;28;20440;-78
2021/12/07 02:21:57;;;;;;;10.43;6.17;;;4.50;99.90;;;;;;5008595;28;20414;-77
2021/12/07 02:24:30;;;;;;;12.00;5.57;;;4.60;99.90;;;;;;4993869;28;20182;-78
2021/12/07 02:26:56;;;;;;;11.07;5.60;;;4.60;99.90;;;;;;5010247;28;20429;-77
2021/12/07 02:29:23;;;;;;;9.77;5.10;;;4.60;99.90;;;;;;5012970;28;20454;-78
2021/12/07 02:31:51;;;;;;;7.97;5.00;;;4.60;99.90;;;;;;5012634;28;20398;-77
2021/12/07 02:34:17;;;;;;;11.83;3.77;;;4.60;99.90;;;;;;5013124;28;20761;-77
2021/12/07 02:36:43;;;;;;;11.93;5.53;;;4.60;99.90;;;;;;5013252;28;20873;-77
2021/12/07 02:39:12;;;;;;;11.90;4.43;;;4.70;99.90;;;;;;5012735;28;20458;-78
2021/12/07 02:41:40;;;;;;;13.00;5.00;;;4.70;99.90;;;;;;5012065;28;20426;-76
2021/12/07 02:44:07;;;;;;;12.90;5.40;;;4.70;99.90;;;;;;5012254;28;20420;-77
2021/12/07 02:46:39;;;;;;;7.40;4.97;;;4.70;99.90;;;;;;5012321;28;20449;-77
2021/12/07 02:49:08;;;;;;;11.87;5.00;;;4.70;99.90;;;;;;4995944;28;20527;-76
2021/12/07 02:51:34;;;;;;;10.73;5.57;;;4.80;99.90;;;;;;5012159;28;20723;-78
2021/12/07 02:54:01;;;;;;;20.43;6.50;;;4.80;99.90;;;;;;5012265;28;20963;-77
2021/12/07 02:56:27;;;;;;;12.07;6.80;;;4.80;99.90;;;;;;5012422;28;20418;-76
2021/12/07 02:58:58;;;;;;;9.43;5.50;;;4.80;99.90;;;;;;5012181;28;20811;-77
2021/12/07 03:01:30;;;;;;;8.90;5.70;;;4.80;99.90;;;;;;5011966;28;20186;-77
2021/12/07 03:04:03;;;;;;;15.80;6.27;;;4.80;99.90;;;;;;5011746;28;20426;-77
2021/12/07 03:07:15;;;;;;;10.80;6.33;;;4.80;99.90;;;;;;4996212;28;20413;-77
2021/12/07 03:10:00;;;;;;;12.60;7.00;;;4.80;99.90;;;;;;5011765;28;20473;-78
2021/12/07 03:26:15;;;;;;;15.00;5.80;;;4.80;99.90;;;;;;5014193;28;20460;-77
2021/12/07 03:28:47;;;;;;;16.37;4.60;;;4.80;99.90;;;;;;5012834;28;20495;-77
2021/12/07 03:31:19;;;;;;;14.00;5.73;;;4.80;99.90;;;;;;4995725;28;20413;-77
2021/12/07 03:33:48;;;;;;;11.80;5.17;;;4.90;99.90;;;;;;5011335;28;20485;-78
2021/12/07 03:36:14;;;;;;;14.67;4.80;;;4.90;99.90;;;;;;5011248;28;20493;-77
2021/12/07 03:38:41;;;;;;;17.90;5.50;;;4.90;99.90;;;;;;4978333;28;21064;-78
2021/12/07 03:41:09;;;;;;;15.17;5.40;;;5.00;99.90;;;;;;5011128;28;20787;-78
2021/12/07 03:43:36;;;;;;;10.33;4.90;;;5.00;99.90;;;;;;5011560;28;20417;-76
2021/12/07 03:46:03;;;;;;;14.13;4.10;;;5.00;99.90;;;;;;5012552;28;20414;-76
2021/12/07 03:48:29;;;;;;;14.83;5.13;;;5.00;99.90;;;;;;5013148;28;20454;-76
2021/12/07 03:50:54;;;;;;;12.97;5.13;;;5.00;99.90;;;;;;4994795;28;20434;-76
2021/12/07 03:53:20;;;;;;;12.30;4.77;;;5.00;99.90;;;;;;5010681;28;20780;-77
2021/12/07 03:55:47;;;;;;;14.90;5.60;;;5.00;99.90;;;;;;4994647;28;20171;-77
2021/12/07 03:58:13;;;;;;;10.70;4.40;;;5.00;99.90;;;;;;5011153;28;20195;-77
2021/12/07 04:00:43;;;;;;;14.63;4.30;;;5.00;99.90;;;;;;5010644;28;21009;-77
2021/12/07 04:03:12;;;;;;;12.20;3.80;;;5.00;99.90;;;;;;4994107;28;20414;-76
2021/12/07 04:05:47;;;;;;;8.50;3.63;;;5.00;99.70;;;;;;5010730;28;20418;-77
2021/12/07 04:08:22;;;;;;;15.13;5.03;;;5.00;99.80;;;;;;5010431;28;20462;-77
2021/12/07 04:10:49;;;;;;;10.70;4.00;;;4.90;99.60;;;;;;5011179;28;20824;-77
2021/12/07 04:13:15;;;;;;;10.40;3.63;;;4.90;99.60;;;;;;5010502;28;20489;-76
2021/12/07 04:15:41;;;;;;;9.17;4.30;;;4.80;99.70;;;;;;5011046;28;20963;-77
2021/12/07 04:18:08;;;;;;;15.87;3.83;;;4.80;99.80;;;;;;5010284;28;20540;-77
2021/12/07 04:20:34;;;;;;;14.00;4.33;;;4.80;99.80;;;;;;5010812;28;20421;-77
2021/12/07 04:23:00;;;;;;;13.10;3.77;;;4.80;99.80;;;;;;5010260;28;20418;-77
2021/12/07 04:25:26;;;;;;;16.27;3.73;;;4.80;99.80;;;;;;5012089;28;20418;-76
2021/12/07 04:27:53;;;;;;;7.80;3.30;;;4.70;99.80;;;;;;5011412;28;20179;-77
2021/12/07 04:30:28;;;;;;;14.40;3.57;;;4.70;99.90;;;;;;5011760;28;20410;-77
2021/12/07 04:32:54;;;;;;;18.73;5.77;;;4.70;99.90;;;;;;5011219;28;20408;-77
2021/12/07 04:35:20;;;;;;;10.53;4.33;;;4.70;99.90;;;;;;5011879;28;20444;-78
2021/12/07 04:37:47;;;;;;;10.10;3.30;;;4.70;99.90;;;;;;5015216;28;20402;-76
2021/12/07 04:40:23;;;;;;;14.23;4.40;;;4.70;99.90;;;;;;5014384;28;20772;-76
2021/12/07 04:42:49;;;;;;;10.10;3.73;;;4.70;99.80;;;;;;4994139;28;20899;-76
2021/12/07 04:45:31;;;;;;;7.50;3.57;;;4.70;99.90;;;;;;5010782;28;20450;-77
2021/12/07 04:58:26;;;;;;;8.73;4.03;;;4.80;99.60;;;;;;5009984;28;20426;-76
2021/12/07 05:00:53;;;;;;;13.50;4.57;;;4.80;99.50;;;;;;5011505;28;20926;-76
2021/12/07 05:03:18;;;;;;;13.40;4.47;;;4.80;99.40;;;;;;5010935;28;20258;-78
2021/12/07 05:05:48;;;;;;;13.03;4.77;;;4.70;99.40;;;;;;5010421;28;20509;-76
2021/12/07 05:08:20;;;;;;;7.40;4.03;;;4.60;99.30;;;;;;5011105;28;20668;-76
2021/12/07 05:39:45;;;;;;;21.47;4.50;;;4.20;99.90;;;;;;5009137;28;20449;-76
2021/12/07 05:42:12;;;;;;;11.10;4.67;;;4.20;99.90;;;;;;5010434;28;20791;-77
2021/12/07 05:44:37;;;;;;;22.00;5.57;;;4.30;99.90;;;;;;5011102;28;20174;-77
2021/12/07 05:47:04;;;;;;;11.57;4.50;;;4.30;99.90;;;;;;5010672;28;20496;-77
2021/12/07 05:49:30;;;;;;;20.20;5.10;;;4.30;99.90;;;;;;5010224;28;20659;-77
2021/12/07 05:51:56;;;;;;;10.23;3.70;;;4.30;99.90;;;;;;5011284;28;20418;-78
2021/12/07 05:54:21;;;;;;;8.43;4.23;;;4.30;99.90;;;;;;5010439;28;20221;-79
2021/12/07 05:56:47;;;;;;;12.83;5.07;;;4.40;99.90;;;;;;5009838;28;20503;-77
2021/12/07 05:59:13;;;;;;;11.50;4.90;;;4.40;99.90;;;;;;5009368;28;20195;-77
2021/12/07 06:01:39;;;;;;;14.90;3.50;;;4.40;99.90;;;;;;5011735;28;20174;-77
2021/12/07 06:04:05;;;;;;;12.00;5.33;;;4.40;99.90;;;;;;5013390;28;20213;-78
2021/12/07 06:06:31;;;;;;;9.33;3.50;;;4.50;99.80;;;;;;4998117;28;20472;-78
2021/12/07 06:08:56;;;;;;;13.67;4.73;;;4.50;99.70;;;;;;5016498;28;20987;-78
2021/12/07 06:11:24;;;;;;;15.30;4.60;;;4.50;99.70;;;;;;5013352;28;20414;-78
2021/12/07 06:13:50;;;;;;;11.70;4.70;;;4.50;99.60;;;;;;5012409;28;20190;-78
2021/12/07 06:16:16;;;;;;;12.47;4.57;;;4.50;99.50;;;;;;5011556;28;20418;-79
2021/12/07 06:18:43;;;;;;;23.80;5.70;;;4.50;99.50;;;;;;5009464;28;20803;-79
2021/12/07 06:21:10;;;;;;;15.13;5.30;;;4.50;99.50;;;;;;5004732;28;20599;-78
2021/12/07 06:23:36;;;;;;;6.33;4.07;;;4.50;99.30;;;;;;5012600;28;20433;-78
2021/12/07 06:26:02;;;;;;;10.57;4.17;;;4.50;99.20;;;;;;5015676;28;20426;-78
2021/12/07 06:28:28;;;;;;;11.93;5.70;;;4.40;99.20;;;;;;5014224;28;20468;-78
2021/12/07 06:30:55;;;;;;;14.20;4.57;;;4.30;99.30;;;;;;5013867;28;20425;-77
2021/12/07 06:33:23;;;;;;;22.13;4.37;;;4.30;99.60;;;;;;5013784;28;20179;-78
2021/12/07 06:35:51;;;;;;;10.53;4.43;;;4.30;99.60;;;;;;5013438;28;20417;-79
2021/12/07 06:38:22;;;;;;;15.30;5.40;;;4.30;99.60;;;;;;5013195;28;20453;-80
2021/12/07 06:40:48;;;;;;;11.07;5.37;;;4.30;99.80;;;;;;5013530;28;20749;-79
2021/12/07 06:43:14;;;;;;;21.80;5.97;;;4.30;99.70;;;;;;5014524;28;21038;-78
2021/12/07 06:45:39;;;;;;;11.47;5.10;;;4.40;99.70;;;;;;5014581;28;20261;-79
2021/12/07 06:48:06;;;;;;;12.30;5.57;;;4.40;99.60;;;;;;5012818;28;20444;-79
2021/12/07 06:50:32;;;;;;;16.30;5.07;;;4.40;99.50;;;;;;5015561;28;20175;-80
2021/12/07 06:52:57;;;;;;;19.80;5.70;;;4.40;99.40;;;;;;5017629;28;20516;-78
2021/12/07 06:55:23;;;;;;;13.10;4.60;;;4.40;99.20;;;;;;5016589;28;20210;-80
2021/12/07 06:57:49;;;;;;;13.67;4.67;;;4.40;99.10;;;;;;5012556;28;20201;-78
2021/12/07 07:00:17;;;;;;;20.23;4.57;;;4.30;99.10;;;;;;5015119;28;20422;-78
2021/12/07 07:02:43;;;;;;;9.73;4.93;;;4.20;99.20;;;;;;5013325;28;20517;-77
2021/12/07 07:05:10;;;;;;;15.97;5.63;;;4.10;99.20;;;;;;5012796;28;20429;-77
2021/12/07 07:07:37;;;;;;;12.03;4.00;;;4.10;99.20;;;;;;5013150;28;20519;-78
2021/12/07 07:10:05;;;;;;;10.50;3.90;;;4.00;99.30;;;;;;5013114;28;20483;-78
2021/12/07 07:12:31;;;;;;;21.53;4.87;;;3.90;99.40;;;;;;5011660;28;20413;-78
2021/12/07 07:14:56;;;;;;;11.73;4.13;;;3.90;99.50;;;;;;5013110;28;20426;-78
2021/12/07 07:17:22;;;;;;;10.23;3.70;;;3.80;99.60;;;;;;5013783;28;20699;-79
2021/12/07 07:19:48;;;;;;;20.60;4.27;;;3.80;99.70;;;;;;5013632;28;20195;-78
2021/12/07 07:22:13;;;;;;;15.30;3.90;;;3.70;99.70;;;;;;5013700;28;20171;-79
2021/12/07 07:24:42;;;;;;;10.80;4.13;;;3.70;99.80;;;;;;5012508;28;20175;-78
2021/12/07 07:27:08;;;;;;;9.13;3.20;;;3.70;99.80;;;;;;4997193;28;20183;-78
2021/12/07 07:29:34;;;;;;;10.00;3.93;;;3.70;99.90;;;;;;5016898;28;20468;-77
2021/12/07 07:31:59;;;;;;;13.17;4.90;;;3.70;99.90;;;;;;5016224;28;20222;-77
2021/12/07 07:34:25;;;;;;;15.17;6.23;;;3.70;99.90;;;;;;5015246;28;20171;-78
2021/12/07 07:36:51;;;;;;;8.00;3.03;;;3.70;99.90;;;;;;5014598;28;20206;-78
2021/12/07 07:39:17;;;;;;;14.50;5.00;;;3.70;99.80;;;;;;5014278;28;20473;-78
2021/12/07 07:41:43;;;;;;;17.57;6.73;;;3.70;99.80;;;;;;5014814;28;20163;-78
2021/12/07 07:44:08;;;;;;;10.43;3.47;;;3.80;99.90;;;;;;5014393;28;20600;-78
2021/12/07 07:46:43;;;;;;;13.13;3.00;;;3.80;99.70;;;;;;5012494;28;20194;-78
2021/12/07 07:49:09;;;;;;;11.60;3.33;;;3.90;99.60;;;;;;5012465;28;20630;-78
2021/12/07 07:51:35;;;;;;;12.60;3.50;;;3.90;99.80;;;;;;5012642;28;20472;-79
2021/12/07 07:54:01;;;;;;;14.83;6.00;;;3.90;99.30;;;;;;5013707;28;20163;-77
2021/12/07 07:56:28;;;;;;;19.87;3.53;;;3.90;99.40;;;;;;5013771;28;20264;-78
2021/12/07 07:58:54;;;;;;;7.33;4.03;;;4.00;99.40;;;;;;5013750;28;20459;-78
2021/12/07 08:01:20;;;;;;;10.03;3.40;;;4.00;99.30;;;;;;5013089;28;20498;-78
2021/12/07 08:03:46;;;;;;;15.10;4.37;;;4.10;99.10;;;;;;5013846;28;20829;-77
2021/12/07 08:06:12;;;;;;;6.77;2.87;;;4.10;98.90;;;;;;5012975;28;20422;-78
2021/12/07 08:08:38;;;;;;;7.33;2.53;;;4.10;99.10;;;;;;5013075;28;20199;-78
2021/12/07 08:11:04;;;;;;;12.17;2.73;;;4.10;98.70;;;;;;5013958;28;20517;-78
2021/12/07 08:13:31;;;;;;;10.90;2.80;;;4.10;98.50;;;;;;4996286;28;20254;-78
2021/12/07 08:15:57;;;;;;;11.60;3.37;;;4.10;98.50;;;;;;5014358;28;20174;-77
2021/12/07 08:18:23;;;;;;;6.60;2.77;;;4.10;98.50;;;;;;5011712;28;20442;-79
2021/12/07 08:20:49;;;;;;;8.87;3.27;;;4.10;98.40;;;;;;5014331;28;20479;-78
2021/12/07 08:23:15;;;;;;;15.93;3.57;;;4.10;98.40;;;;;;5011997;28;20184;-77
2021/12/07 08:25:44;;;;;;;5.60;2.37;;;4.10;98.20;;;;;;5012011;28;20178;-78
2021/12/07 08:28:14;;;;;;;11.37;2.33;;;4.20;98.10;;;;;;5011736;28;20210;-78
2021/12/07 08:30:41;;;;;;;13.00;3.20;;;4.20;98.10;;;;;;5014897;28;20698;-78
2021/12/07 08:33:08;;;;;;;19.57;3.40;;;4.30;98.10;;;;;;5013212;28;20398;-78
2021/12/07 08:35:34;;;;;;;21.17;5.90;;;4.30;98.40;;;;;;5013370;28;20402;-78
2021/12/07 08:37:59;;;;;;;23.17;8.30;;;4.40;98.00;;;;;;5012881;28;21234;-78
2021/12/07 08:40:29;;;;;;;18.30;6.27;;;4.50;97.90;;;;;;5012736;28;20290;-79
2021/12/07 08:42:55;;;;;;;23.53;8.30;;;4.50;97.80;;;;;;5013208;28;20168;-77
2021/12/07 08:45:23;;;;;;;20.10;8.70;;;4.60;97.70;;;;;;5013175;28;20484;-78
2021/12/07 08:47:49;;;;;;;23.03;5.50;;;4.70;97.60;;;;;;4995146;28;20422;-78
2021/12/07 08:50:29;;;;;;;16.23;4.53;;;4.70;97.50;;;;;;5012728;28;20464;-79
2021/12/07 08:53:02;;;;;;;8.23;3.87;;;4.80;97.30;;;;;;5012418;28;20425;-78
2021/12/07 09:00:59;;;;;;;16.33;3.70;;;5.10;96.80;;;;;;5019128;28;20856;-78
2021/12/07 09:03:25;;;;;;;12.83;5.20;;;5.20;96.30;;;;;;5022523;28;20478;-78
2021/12/07 09:05:50;;;;;;;11.00;3.80;;;5.30;95.50;;;;;;5019769;28;20931;-78
2021/12/07 09:08:16;;;;;;;21.60;4.43;;;5.30;95.80;;;;;;5013153;28;20202;-77
2021/12/07 09:10:43;;;;;;;10.33;4.03;;;5.40;95.30;;;;;;5011999;28;20163;-77
2021/12/07 09:13:09;;;;;;;15.60;4.10;;;5.40;95.10;;;;;;5010643;28;20959;-79
2021/12/07 09:15:35;;;;;;;13.80;3.97;;;5.50;95.60;;;;;;4994990;28;20414;-79
2021/12/07 09:18:01;;;;;;;15.70;3.70;;;6.20;95.90;;;;;;5010272;28;20442;-78
2021/12/07 09:20:29;;;;;;;14.00;4.23;;;7.70;96.50;;;;;;5012041;28;20410;-77
2021/12/07 09:22:55;;;;;;;19.00;4.83;;;9.10;91.10;;;;;;5011925;28;20477;-78
2021/12/07 09:25:21;;;;;;;9.47;3.30;;;9.70;80.40;;;;;;5011724;28;20406;-77
2021/12/07 09:27:47;;;;;;;16.43;4.40;;;9.70;79.30;;;;;;5010507;28;20409;-78
2021/12/07 09:30:16;;;;;;;17.93;4.70;;;9.70;76.80;;;;;;5011188;28;20198;-78
2021/12/07 09:32:43;;;;;;;10.40;3.27;;;9.30;75.90;;;;;;5010833;28;20428;-79
2021/12/07 09:35:10;;;;;;;9.77;3.60;;;8.90;80.60;;;;;;5011505;28;20425;-79
2021/12/07 09:37:36;;;;;;;8.90;3.60;;;9.00;80.30;;;;;;5011970;28;20434;-78
2021/12/07 09:40:06;;;;;;;9.70;3.00;;;10.00;81.50;;;;;;5013319;28;20515;-79
2021/12/07 09:42:32;;;;;;;7.70;3.53;;;11.10;74.40;;;;;;5013609;28;20414;-78
2021/12/07 09:44:57;;;;;;;6.40;2.73;;;11.90;65.90;;;;;;5015539;28;20428;-78
2021/12/07 09:47:24;;;;;;;12.47;3.63;;;12.90;67.40;;;;;;5021673;28;20596;-79
2021/12/07 09:49:50;;;;;;;11.10;3.13;;;13.80;61.50;;;;;;5012241;28;20684;-77
2021/12/07 09:52:16;;;;;;;9.33;3.30;;;14.70;59.00;;;;;;5011250;28;20421;-78
2021/12/07 09:54:42;;;;;;;11.23;3.97;;;15.40;55.10;;;;;;5011750;28;20772;-79
2021/12/07 09:57:08;;;;;;;11.20;3.50;;;15.10;53.20;;;;;;5011957;28;20167;-78
2021/12/07 09:59:33;;;;;;;9.40;3.77;;;14.50;52.40;;;;;;5012571;28;20591;-78
2021/12/07 10:02:06;;;;;;;13.47;3.43;;;14.00;52.00;;;;;;5011715;28;20549;-78
2021/12/07 10:04:31;;;;;;;13.23;3.90;;;13.60;53.60;;;;;;5011482;28;20419;-78
2021/12/07 10:06:57;;;;;;;17.47;4.80;;;13.10;54.00;;;;;;5010823;28;20827;-78
2021/12/07 10:09:22;;;;;;;13.77;3.50;;;12.60;55.60;;;;;;5012024;28;20203;-78
2021/12/07 10:11:53;;;;;;;12.97;3.67;;;12.20;56.70;;;;;;5010349;28;20194;-78
2021/12/07 10:14:19;;;;;;;8.43;5.40;;;11.80;58.10;;;;;;5013249;28;20155;-79
2021/12/07 10:16:48;;;;;;;21.70;7.03;;;11.40;58.80;;;;;;5012231;28;20702;-78
2021/12/07 10:19:26;;;;;;;12.73;4.00;;;11.00;59.80;;;;;;5010158;28;20533;-79
2021/12/07 10:22:04;;;;;;;10.63;3.27;;;10.50;61.10;;;;;;5011637;28;20393;-78
2021/12/07 10:24:39;;;;;;;12.17;3.03;;;10.20;62.80;;;;;;5011585;28;20911;-78
2021/12/07 10:27:09;;;;;;;10.80;2.83;;;9.80;66.20;;;;;;5011674;28;20428;-79
2021/12/07 10:29:35;;;;;;;12.63;2.73;;;9.50;67.90;;;;;;5011235;28;20561;-79
2021/12/07 10:32:32;;;;;;;14.10;4.10;;;9.20;69.20;;;;;;5009957;28;20849;-78
2021/12/07 10:34:58;;;;;;;9.93;2.93;;;8.90;70.20;;;;;;4976668;28;20278;-78
2021/12/07 10:37:23;;;;;;;16.17;5.70;;;8.50;72.40;;;;;;5011806;28;20445;-78
2021/12/07 10:39:52;;;;;;;12.10;3.27;;;8.30;74.00;;;;;;5012215;28;20211;-78
2021/12/07 10:42:25;;;;;;;16.80;3.10;;;8.00;75.50;;;;;;5016864;28;20226;-79
2021/12/07 10:44:52;;;;;;;9.57;3.10;;;7.90;77.70;;;;;;5013537;28;20426;-78
2021/12/07 10:47:20;;;;;;;9.20;2.93;;;7.70;77.90;;;;;;5014475;28;20536;-78
2021/12/07 10:49:51;;;;;;;8.50;2.20;;;7.60;79.70;;;;;;5017438;28;21077;-79
2021/12/07 10:52:21;;;;;;;9.57;2.60;;;7.50;79.90;;;;;;5014386;28;20410;-79
2021/12/07 10:54:59;;;;;;;24.10;3.40;;;7.40;79.90;;;;;;5014912;28;20852;-79
2021/12/07 10:57:42;;;;;;;8.10;2.10;;;7.30;79.20;;;;;;5015065;28;20425;-79
2021/12/07 11:00:29;;;;;;;9.03;2.13;;;7.30;79.80;;;;;;5013543;28;20502;-78
2021/12/07 11:03:06;;;;;;;10.37;2.10;;;7.20;79.30;;;;;;5017133;28;20410;-78
2021/12/07 11:05:38;;;;;;;7.73;1.63;;;7.20;79.80;;;;;;5012709;28;20410;-78
2021/12/07 11:08:06;;;;;;;5.97;2.20;;;7.20;78.50;;;;;;5016261;28;20438;-78
2021/12/07 11:10:39;;;;;;;5.50;2.20;;;7.20;78.10;;;;;;5014622;28;20459;-78
2021/12/07 11:13:17;;;;;;;6.57;2.70;;;7.10;79.20;;;;;;5013946;28;20834;-78
2021/12/07 11:15:51;;;;;;;11.10;2.50;;;7.10;77.00;;;;;;5014194;28;20449;-78
2021/12/07 11:18:25;;;;;;;6.20;2.80;;;7.10;77.80;;;;;;5014249;28;20572;-78
2021/12/07 11:20:52;;;;;;;11.33;3.13;;;7.10;77.30;;;;;;5015851;28;20414;-78
2021/12/07 11:23:23;;;;;;;11.00;3.47;;;7.00;77.30;;;;;;5013368;28;20560;-78
2021/12/07 11:29:39;;;;;;;4.90;2.63;;;7.00;77.10;;;;;;5016075;28;20497;-79
2021/12/07 11:31:32;;;;;;;14.10;6.23;;;7.00;76.20;;;;;;5013921;28;20406;-79
2021/12/07 11:34:15;;;;;;;14.37;4.87;;;7.00;76.30;;;;;;5013239;28;20410;-78
2021/12/07 11:36:47;;;;;;;12.90;3.27;;;7.00;76.60;;;;;;5015207;28;20420;-77
2021/12/07 11:39:18;;;;;;;5.30;2.23;;;7.00;75.20;;;;;;5014141;28;20807;-79
2021/12/07 11:41:48;;;;;;;5.23;2.40;;;7.00;75.00;;;;;;5013003;28;21006;-77
2021/12/07 11:44:14;;;;;;;11.47;3.67;;;7.00;73.40;;;;;;5013981;28;20418;-77
2021/12/07 11:46:47;;;;;;;5.07;2.27;;;7.00;73.20;;;;;;5013337;28;20421;-77
2021/12/07 11:49:20;;;;;;;7.87;2.30;;;7.00;74.60;;;;;;4979720;28;20473;-77
2021/12/07 11:51:48;;;;;;;4.87;3.00;;;7.00;73.80;;;;;;4995492;28;20848;-79
2021/12/07 11:54:15;;;;;;;6.13;2.90;;;6.90;71.70;;;;;;5012063;28;20410;-78
2021/12/07 11:56:43;;;;;;;5.73;1.80;;;6.90;72.00;;;;;;5012902;28;20895;-77
2021/12/07 11:59:09;;;;;;;9.53;2.47;;;6.90;71.30;;;;;;5012386;28;20445;-78
2021/12/07 12:01:35;;;;;;;6.67;2.30;;;6.90;69.50;;;;;;5012992;28;20414;-79
2021/12/07 12:04:01;;;;;;;5.70;1.80;;;6.90;70.60;;;;;;5013832;28;20464;-79
2021/12/07 12:06:29;;;;;;;11.40;2.20;;;7.00;70.80;;;;;;5014159;28;20414;-78
2021/12/07 12:08:56;;;;;;;7.13;2.40;;;7.10;70.20;;;;;;5012394;28;20468;-78
2021/12/07 12:11:34;;;;;;;6.80;2.00;;;7.10;70.40;;;;;;5013965;28;20422;-79
2021/12/07 12:14:11;;;;;;;12.43;2.47;;;7.10;70.20;;;;;;5014065;28;20406;-77
2021/12/07 12:16:50;;;;;;;6.27;2.47;;;7.10;70.50;;;;;;5014075;28;20398;-79
2021/12/07 12:19:54;;;;;;;8.20;4.63;;;7.10;71.20;;;;;;5014624;28;20429;-78
2021/12/07 12:22:46;;;;;;;7.27;2.20;;;7.10;71.50;;;;;;5013159;28;20741;-79
2021/12/07 12:25:15;;;;;;;4.97;2.30;;;7.10;72.20;;;;;;5012885;28;20422;-78
2021/12/07 12:27:43;;;;;;;5.73;2.30;;;7.10;72.30;;;;;;5012226;28;20410;-79
2021/12/07 12:30:17;;;;;;;11.70;1.63;;;7.10;71.50;;;;;;5011229;28;20493;-78
2021/12/07 12:32:45;;;;;;;5.73;1.80;;;7.10;70.10;;;;;;5012676;28;20410;-79
2021/12/07 12:35:13;;;;;;;4.27;1.90;;;7.00;67.40;;;;;;5013362;28;20839;-78
2021/12/07 12:37:47;;;;;;;6.93;2.20;;;6.90;67.00;;;;;;5011558;28;20410;-79
2021/12/07 12:40:30;;;;;;;8.23;2.47;;;7.00;69.00;;;;;;5013612;28;20784;-78
2021/12/07 12:42:57;;;;;;;5.87;2.13;;;7.20;70.20;;;;;;5015566;28;20409;-78
2021/12/07 12:45:31;;;;;;;7.13;1.70;;;7.30;68.50;;;;;;5014067;28;20447;-78
2021/12/07 12:48:11;;;;;;;2.20;1.60;;;7.30;67.00;;;;;;5013750;28;20409;-78
2021/12/07 12:50:49;;;;;;;5.03;1.83;;;7.30;66.50;;;;;;5012118;28;20460;-78
2021/12/07 12:53:16;;;;;;;5.77;2.00;;;7.10;64.70;;;;;;5011055;28;20410;-78
2021/12/07 12:55:48;;;;;;;6.40;3.43;;;7.10;66.50;;;;;;5013472;28;20417;-79
2021/12/07 12:58:42;;;;;;;9.43;2.43;;;6.90;64.80;;;;;;5012237;28;20523;-77
2021/12/07 13:01:17;;;;;;;4.03;1.27;;;6.90;65.20;;;;;;5012501;28;20533;-78
2021/12/07 13:03:51;;;;;;;6.80;1.70;;;6.80;65.80;;;;;;5010578;28;20406;-78
2021/12/07 13:06:38;;;;;;;11.80;2.70;;;6.80;67.10;;;;;;5011240;28;20410;-78
2021/12/07 13:09:17;;;;;;;4.57;1.57;;;6.80;67.20;;;;;;5014322;28;20453;-78
2021/12/07 13:11:44;;;;;;;6.87;1.90;;;6.80;67.90;;;;;;5013577;28;20422;-78
2021/12/07 13:14:21;;;;;;;5.93;1.40;;;6.80;68.30;;;;;;5013336;28;20433;-79
2021/12/07 13:16:53;;;;;;;6.50;1.90;;;6.70;67.70;;;;;;5013703;28;20413;-77
2021/12/07 13:19:21;;;;;;;6.47;2.07;;;6.80;68.80;;;;;;5011096;28;20438;-79
2021/12/07 13:21:48;;;;;;;14.23;6.60;;;6.70;68.20;;;;;;5011653;28;20429;-79
2021/12/07 13:24:32;;;;;;;10.20;3.60;;;6.70;69.60;;;;;;5012196;28;20418;-78
2021/12/07 13:26:58;;;;;;;8.23;3.70;;;6.70;68.40;;;;;;5013497;28;20409;-78
2021/12/07 13:29:26;;;;;;;9.27;2.70;;;6.70;69.10;;;;;;5010737;28;20469;-77
2021/12/07 13:31:56;;;;;;;6.93;1.83;;;6.70;68.50;;;;;;5012467;28;20406;-79
2021/12/07 13:34:31;;;;;;;11.23;2.53;;;6.60;67.70;;;;;;5011922;28;20481;-78
2021/12/07 13:36:59;;;;;;;13.03;2.17;;;6.50;68.10;;;;;;5011288;28;20508;-78
2021/12/07 13:39:25;;;;;;;14.87;2.47;;;6.40;68.80;;;;;;5036441;22;20602;-73
2021/12/07 13:42:14;;;;;;;7.80;1.77;;;6.40;69.50;;;;;;5012548;28;20509;-73
2021/12/07 13:45:01;;;;;;;7.93;3.27;;;6.40;69.60;;;;;;5019467;28;20166;-72
2021/12/07 13:47:34;;;;;;;5.43;2.20;;;6.30;69.70;;;;;;5016432;28;20486;-71
2021/12/07 13:50:09;;;;;;;6.17;2.03;;;6.20;69.80;;;;;;5008776;28;20516;-73
2021/12/07 13:52:41;;;;;;;6.43;1.97;;;6.20;70.10;;;;;;5013347;28;20733;-72
2021/12/07 13:55:18;;;;;;;10.27;2.80;;;6.20;70.50;;;;;;5013346;28;20416;-73
2021/12/07 13:57:47;;;;;;;11.53;2.80;;;6.10;70.90;;;;;;4992609;28;20828;-72
2021/12/07 14:00:25;;;;;;;10.47;2.90;;;6.10;71.00;;;;;;4997639;28;21024;-72
2021/12/07 14:02:57;;;;;;;10.30;2.27;;;6.10;71.30;;;;;;4996977;28;21035;-73
2021/12/07 14:05:30;;;;;;;6.83;2.13;;;6.10;71.30;;;;;;4995695;28;20472;-75
2021/12/07 14:07:59;;;;;;;7.70;2.17;;;6.00;71.20;;;;;;5007101;28;20925;-72
2021/12/07 14:10:29;;;;;;;5.27;1.43;;;6.00;71.40;;;;;;4992831;28;20454;-74
2021/12/07 14:12:57;;;;;;;9.70;2.20;;;6.00;71.50;;;;;;5010475;28;20430;-72
2021/12/07 14:15:35;;;;;;;4.43;1.63;;;5.90;71.60;;;;;;5010417;28;20567;-72
2021/12/07 14:18:07;;;;;;;4.87;1.90;;;5.90;72.80;;;;;;5013385;28;20424;-72
2021/12/07 14:20:38;;;;;;;7.40;2.13;;;5.80;72.20;;;;;;5011235;28;20414;-73
2021/12/07 14:23:19;;;;;;;12.83;2.07;;;5.80;72.40;;;;;;5010769;28;20422;-73
2021/12/07 14:25:56;;;;;;;9.43;2.07;;;5.80;72.60;;;;;;5014114;28;20433;-75
2021/12/07 14:28:38;;;;;;;4.60;1.50;;;5.70;72.70;;;;;;5015046;28;20445;-72
2021/12/07 14:31:14;;;;;;;9.43;2.80;;;5.70;72.80;;;;;;5016413;28;20417;-73
2021/12/07 14:33:47;;;;;;;10.40;2.30;;;5.70;72.60;;;;;;5017170;28;20579;-74
2021/12/07 14:36:16;;;;;;;11.77;2.53;;;5.70;73.00;;;;;;5016411;28;20431;-75
2021/12/07 14:38:41;;;;;;;11.77;2.33;;;5.60;73.10;;;;;;5013856;28;20495;-72
2021/12/07 14:41:11;;;;;;;6.50;2.40;;;5.60;73.30;;;;;;5016034;28;20410;-74
2021/12/07 14:43:39;;;;;;;5.97;1.93;;;5.50;73.40;;;;;;5016508;28;20820;-71